createdAt,value
2022-10-07T00:00:56.064Z,9.70
2022-10-07T00:03:26.504Z,10.20
2022-10-07T00:06:05.149Z,9.70
2022-10-07T00:08:33.172Z,9.70
2022-10-07T00:11:08.022Z,9.50
2022-10-07T00:13:36.526Z,9.70
2022-10-07T00:16:08.147Z,9.60
2022-10-07T00:18:36.477Z,9.60
2022-10-07T00:21:12.586Z,9.60
2022-10-07T00:23:41.997Z,9.60
2022-10-07T00:26:10.829Z,9.60
2022-10-07T00:28:37.545Z,9.60
2022-10-07T00:31:07.720Z,9.60
2022-10-07T00:33:37.455Z,9.50
2022-10-07T00:36:17.282Z,9.50
2022-10-07T00:38:44.073Z,9.50
2022-10-07T00:41:18.946Z,9.50
2022-10-07T00:43:45.742Z,9.40
2022-10-07T00:46:23.061Z,9.30
2022-10-07T00:48:50.188Z,9.40
2022-10-07T00:51:17.564Z,9.50
2022-10-07T00:53:49.048Z,9.40
2022-10-07T00:56:17.869Z,9.30
2022-10-07T00:58:46.851Z,9.30
2022-10-07T01:01:13.539Z,9.40
2022-10-07T01:03:40.270Z,9.30
2022-10-07T01:06:06.959Z,9.40
2022-10-07T01:08:33.983Z,9.40
2022-10-07T01:11:39.143Z,9.50
2022-10-07T01:14:47.984Z,9.40
2022-10-07T01:17:28.856Z,9.40
2022-10-07T01:20:18.369Z,9.30
2022-10-07T01:23:20.281Z,9.30
2022-10-07T01:26:14.581Z,9.30
2022-10-07T01:28:47.760Z,9.30
2022-10-07T01:31:19.035Z,9.30
2022-10-07T01:33:46.270Z,9.20
2022-10-07T01:36:20.595Z,9.30
2022-10-07T01:39:02.293Z,9.20
2022-10-07T01:41:30.253Z,9.20
2022-10-07T01:43:59.193Z,8.90
2022-10-07T01:46:27.705Z,9.10
2022-10-07T01:48:55.378Z,9.20
2022-10-07T01:51:25.272Z,8.80
2022-10-07T01:54:50.180Z,9.10
2022-10-07T01:57:40.481Z,9.10
2022-10-07T02:00:10.181Z,9.10
2022-10-07T02:02:54.990Z,9.00
2022-10-07T02:05:42.443Z,8.50
2022-10-07T02:08:20.799Z,9.00
2022-10-07T02:11:03.771Z,9.00
2022-10-07T02:13:59.212Z,9.00
2022-10-07T02:16:33.273Z,9.10
2022-10-07T02:19:04.398Z,9.00
2022-10-07T02:21:35.764Z,8.90
2022-10-07T02:24:03.685Z,8.70
2022-10-07T02:26:32.986Z,9.00
2022-10-07T02:29:03.471Z,8.90
2022-10-07T02:31:33.343Z,9.00
2022-10-07T02:34:01.999Z,8.90
2022-10-07T02:36:34.732Z,8.80
2022-10-07T02:39:02.058Z,8.80
2022-10-07T02:41:55.998Z,8.80
2022-10-07T02:44:37.123Z,8.80
2022-10-07T02:47:29.414Z,8.70
2022-10-07T02:50:00.173Z,8.80
2022-10-07T02:52:31.162Z,8.70
2022-10-07T02:55:04.334Z,8.70
2022-10-07T02:57:34.931Z,8.70
2022-10-07T03:00:04.278Z,8.70
2022-10-07T03:02:44.975Z,8.70
2022-10-07T03:05:13.134Z,8.70
2022-10-07T03:07:41.289Z,8.60
2022-10-07T03:10:09.300Z,8.50
2022-10-07T03:12:35.865Z,8.50
2022-10-07T03:15:02.889Z,8.50
2022-10-07T03:17:29.454Z,8.40
2022-10-07T03:19:55.993Z,8.40
2022-10-07T03:22:22.540Z,8.50
2022-10-07T03:24:49.088Z,8.40
2022-10-07T03:27:15.705Z,8.40
2022-10-07T03:29:42.347Z,8.60
2022-10-07T03:32:08.901Z,8.40
2022-10-07T03:34:35.476Z,8.40
2022-10-07T03:37:02.032Z,8.40
2022-10-07T03:39:28.642Z,8.30
2022-10-07T03:41:56.987Z,8.40
2022-10-07T03:44:23.618Z,8.40
2022-10-07T03:46:51.686Z,8.40
2022-10-07T03:49:20.140Z,8.30
2022-10-07T03:51:47.602Z,8.20
2022-10-07T03:54:14.335Z,8.20
2022-10-07T03:56:40.856Z,8.30
2022-10-07T03:59:07.432Z,8.30
2022-10-07T04:01:34.049Z,8.30
2022-10-07T04:04:00.849Z,8.30
2022-10-07T04:06:27.484Z,8.20
2022-10-07T04:08:55.342Z,8.20
2022-10-07T04:11:23.050Z,8.20
2022-10-07T04:13:50.139Z,8.30
2022-10-07T04:16:17.215Z,8.20
2022-10-07T04:18:44.310Z,8.20
2022-10-07T04:21:11.625Z,8.20
2022-10-07T04:23:40.574Z,8.20
2022-10-07T04:26:11.588Z,8.20
2022-10-07T04:28:39.112Z,8.20
2022-10-07T04:31:08.623Z,8.30
2022-10-07T04:33:38.744Z,8.30
2022-10-07T04:36:06.963Z,8.30
2022-10-07T04:38:33.681Z,8.20
2022-10-07T04:41:06.815Z,8.30
2022-10-07T04:43:34.535Z,8.20
2022-10-07T04:46:04.651Z,8.20
2022-10-07T04:48:31.477Z,8.30
2022-10-07T04:51:02.861Z,8.20
2022-10-07T04:53:29.558Z,8.20
2022-10-07T04:55:56.421Z,8.20
2022-10-07T04:58:23.084Z,8.20
2022-10-07T05:00:52.430Z,8.10
2022-10-07T05:03:21.057Z,8.20
2022-10-07T05:05:50.374Z,8.20
2022-10-07T05:08:18.800Z,8.20
2022-10-07T05:10:45.775Z,8.10
2022-10-07T05:13:15.723Z,8.10
2022-10-07T05:15:49.790Z,8.10
2022-10-07T05:18:17.669Z,8.00
2022-10-07T05:20:46.437Z,8.00
2022-10-07T05:23:18.358Z,8.30
2022-10-07T05:25:44.973Z,8.10
2022-10-07T05:28:12.718Z,8.20
2022-10-07T05:30:39.790Z,8.20
2022-10-07T05:33:06.778Z,8.20
2022-10-07T05:35:34.131Z,8.30
2022-10-07T05:38:01.322Z,8.20
2022-10-07T05:40:28.592Z,8.30
2022-10-07T05:42:56.315Z,8.30
2022-10-07T05:45:22.912Z,8.20
2022-10-07T05:47:49.544Z,8.20
2022-10-07T05:50:16.303Z,8.30
2022-10-07T05:52:45.262Z,8.30
2022-10-07T05:55:12.032Z,8.30
2022-10-07T05:57:39.187Z,8.30
2022-10-07T06:00:07.085Z,7.90
2022-10-07T06:02:34.304Z,8.30
2022-10-07T06:05:01.073Z,8.40
2022-10-07T06:07:29.562Z,8.50
2022-10-07T06:10:15.153Z,8.50
2022-10-07T06:13:00.757Z,8.60
2022-10-07T06:15:29.553Z,8.50
2022-10-07T06:17:56.538Z,8.60
2022-10-07T06:20:23.061Z,8.70
2022-10-07T06:22:49.617Z,8.40
2022-10-07T06:25:16.580Z,8.60
2022-10-07T06:27:43.442Z,8.80
2022-10-07T06:30:10.673Z,8.80
2022-10-07T06:32:37.352Z,8.90
2022-10-07T06:35:04.200Z,8.90
2022-10-07T06:37:32.168Z,9.00
2022-10-07T06:39:59.805Z,9.30
2022-10-07T06:42:26.618Z,9.60
2022-10-07T06:44:56.209Z,10.00
2022-10-07T06:47:23.633Z,10.20
2022-10-07T06:49:50.166Z,10.20
2022-10-07T06:52:16.729Z,10.20
2022-10-07T06:54:43.415Z,10.20
2022-10-07T06:57:32.993Z,10.10
2022-10-07T06:59:56.613Z,10.10
2022-10-07T07:02:25.306Z,10.10
2022-10-07T07:04:55.318Z,10.10
2022-10-07T07:07:24.609Z,10.20
2022-10-07T07:09:51.940Z,10.20
2022-10-07T07:12:18.564Z,10.30
2022-10-07T07:14:45.399Z,10.30
2022-10-07T07:17:12.194Z,10.20
2022-10-07T07:19:38.856Z,10.20
2022-10-07T07:22:06.860Z,10.20
2022-10-07T07:24:33.415Z,10.30
2022-10-07T07:27:00.298Z,10.40
2022-10-07T07:29:26.920Z,10.50
2022-10-07T07:31:53.981Z,10.50
2022-10-07T07:34:20.711Z,10.70
2022-10-07T07:36:51.153Z,10.90
2022-10-07T07:39:18.684Z,12.20
2022-10-07T07:41:50.708Z,11.20
2022-10-07T07:44:18.453Z,11.30
2022-10-07T07:46:51.187Z,11.40
2022-10-07T07:49:18.876Z,11.40
2022-10-07T07:51:46.049Z,11.40
2022-10-07T07:54:13.142Z,11.60
2022-10-07T07:56:39.720Z,11.70
2022-10-07T07:59:08.090Z,11.60
2022-10-07T08:01:35.355Z,11.70
2022-10-07T08:04:05.985Z,11.70
2022-10-07T08:06:32.652Z,11.70
2022-10-07T08:08:59.561Z,11.70
2022-10-07T08:11:26.883Z,11.80
2022-10-07T08:13:55.277Z,11.80
2022-10-07T08:16:24.744Z,12.00
2022-10-07T08:18:52.249Z,12.00
2022-10-07T08:21:22.249Z,12.20
2022-10-07T08:23:57.328Z,12.20
2022-10-07T08:26:30.713Z,12.30
2022-10-07T08:28:57.950Z,12.40
2022-10-07T08:31:28.424Z,12.50
2022-10-07T08:33:58.851Z,12.60
2022-10-07T08:36:27.063Z,12.70
2022-10-07T08:38:53.865Z,12.80
2022-10-07T08:41:41.952Z,13.00
2022-10-07T08:44:17.039Z,13.10
2022-10-07T08:46:54.144Z,13.30
2022-10-07T08:49:29.966Z,13.40
2022-10-07T08:52:04.040Z,13.50
2022-10-07T08:54:30.787Z,13.50
2022-10-07T08:57:23.292Z,13.90
2022-10-07T08:59:58.030Z,13.80
2022-10-07T09:02:52.263Z,13.90
2022-10-07T09:05:24.294Z,14.00
2022-10-07T09:07:57.982Z,14.10
2022-10-07T09:10:31.940Z,14.10
2022-10-07T09:13:04.705Z,14.20
2022-10-07T09:15:46.330Z,14.20
2022-10-07T09:18:59.753Z,14.40
2022-10-07T09:21:41.483Z,14.50
2022-10-07T09:24:20.074Z,14.50
2022-10-07T09:26:47.055Z,14.60
2022-10-07T09:29:13.781Z,14.80
2022-10-07T09:31:40.343Z,14.80
2022-10-07T09:34:18.474Z,14.80
2022-10-07T09:37:10.772Z,15.00
2022-10-07T09:39:37.922Z,15.00
2022-10-07T09:42:07.393Z,15.00
2022-10-07T09:44:34.228Z,15.10
2022-10-07T09:47:16.739Z,15.10
2022-10-07T09:49:46.763Z,15.30
2022-10-07T09:52:26.096Z,16.30
2022-10-07T09:54:55.505Z,15.50
2022-10-07T09:57:31.639Z,15.60
2022-10-07T10:00:13.463Z,15.70
2022-10-07T10:02:43.060Z,15.80
2022-10-07T10:05:24.280Z,15.80
2022-10-07T10:07:57.640Z,15.80
2022-10-07T10:10:27.220Z,15.90
2022-10-07T10:12:56.204Z,16.00
2022-10-07T10:15:37.980Z,16.20
2022-10-07T10:18:35.230Z,16.10
2022-10-07T10:21:29.994Z,16.20
2022-10-07T10:24:06.152Z,16.20
2022-10-07T10:26:42.923Z,16.30
2022-10-07T10:29:40.809Z,16.30
2022-10-07T10:32:36.662Z,16.30
2022-10-07T10:35:08.113Z,16.40
2022-10-07T10:37:59.728Z,16.50
2022-10-07T10:40:44.087Z,16.60
2022-10-07T10:43:24.813Z,16.60
2022-10-07T10:46:19.846Z,16.60
2022-10-07T10:49:06.888Z,16.60
2022-10-07T10:51:58.550Z,16.70
2022-10-07T10:54:43.193Z,16.60
2022-10-07T10:57:34.386Z,16.70
2022-10-07T11:00:06.923Z,16.70
2022-10-07T11:02:39.426Z,16.70
2022-10-07T11:05:14.206Z,16.80
2022-10-07T11:07:50.271Z,16.80
2022-10-07T11:10:27.043Z,17.00
2022-10-07T11:13:12.476Z,17.10
2022-10-07T11:15:44.257Z,17.10
2022-10-07T11:18:21.746Z,17.20
2022-10-07T11:20:50.290Z,17.10
2022-10-07T11:23:23.113Z,17.20
2022-10-07T11:26:02.471Z,17.20
2022-10-07T11:28:32.636Z,17.20
2022-10-07T11:31:32.144Z,17.10
2022-10-07T11:34:17.432Z,17.20
2022-10-07T11:37:03.107Z,17.20
2022-10-07T11:39:30.442Z,17.40
2022-10-07T11:42:30.853Z,17.40
2022-10-07T11:45:06.729Z,17.50
2022-10-07T11:47:49.310Z,17.50
2022-10-07T11:50:22.671Z,17.60
2022-10-07T11:52:52.626Z,17.60
2022-10-07T11:55:51.518Z,17.70
2022-10-07T11:58:32.053Z,17.70
2022-10-07T12:01:26.286Z,17.60
2022-10-07T12:04:13.707Z,17.60
2022-10-07T12:06:40.251Z,17.70
2022-10-07T12:09:44.611Z,17.80
2022-10-07T12:12:14.238Z,17.90
2022-10-07T12:14:43.345Z,17.90
2022-10-07T12:17:23.319Z,18.00
2022-10-07T12:20:28.850Z,18.00
2022-10-07T12:23:25.893Z,18.00
2022-10-07T12:26:03.554Z,18.10
2022-10-07T12:28:47.212Z,18.10
2022-10-07T12:31:16.787Z,18.10
2022-10-07T12:33:46.421Z,18.10
2022-10-07T12:36:18.951Z,18.00
2022-10-07T12:39:07.977Z,18.20
2022-10-07T12:41:39.723Z,16.50
2022-10-07T12:44:34.488Z,17.80
2022-10-07T12:47:21.096Z,17.90
2022-10-07T12:49:59.140Z,17.90
2022-10-07T12:52:52.988Z,17.60
2022-10-07T12:55:30.534Z,17.90
2022-10-07T12:58:18.448Z,18.00
2022-10-07T13:01:23.268Z,18.00
2022-10-07T13:04:22.593Z,17.90
2022-10-07T13:07:19.352Z,17.80
2022-10-07T13:10:42.998Z,17.90
2022-10-07T13:13:20.239Z,18.10
2022-10-07T13:15:55.913Z,18.10
2022-10-07T13:18:35.438Z,18.00
2022-10-07T13:21:10.520Z,18.00
2022-10-07T13:23:37.555Z,17.90
2022-10-07T13:26:04.540Z,18.00
2022-10-07T13:28:38.181Z,18.10
2022-10-07T13:31:26.029Z,18.00
2022-10-07T13:33:54.481Z,18.00
2022-10-07T13:36:29.988Z,17.90
2022-10-07T13:39:22.812Z,17.90
2022-10-07T13:41:55.387Z,17.90
2022-10-07T13:44:25.549Z,17.90
2022-10-07T13:47:19.562Z,17.80
2022-10-07T13:49:49.388Z,17.80
2022-10-07T13:52:39.521Z,17.90
2022-10-07T13:55:29.345Z,17.90
2022-10-07T13:57:57.765Z,17.90
2022-10-07T14:00:25.253Z,18.00
2022-10-07T14:08:17.070Z,17.80
2022-10-07T14:11:00.436Z,17.90
2022-10-07T14:13:28.977Z,18.10
2022-10-07T14:15:57.667Z,18.20
2022-10-07T14:18:27.515Z,18.20
2022-10-07T14:20:57.212Z,18.00
2022-10-07T14:23:31.216Z,17.80
2022-10-07T14:26:04.308Z,17.90
2022-10-07T14:29:09.902Z,17.80
2022-10-07T14:31:55.583Z,17.80
2022-10-07T14:34:40.956Z,17.60
2022-10-07T14:37:13.626Z,17.60
2022-10-07T14:39:42.441Z,17.50
2022-10-07T14:42:15.413Z,17.50
2022-10-07T14:44:56.131Z,17.70
2022-10-07T14:47:25.032Z,17.30
2022-10-07T14:49:53.636Z,17.20
2022-10-07T14:52:43.515Z,17.20
2022-10-07T14:55:21.329Z,17.10
2022-10-07T14:57:50.606Z,17.20
2022-10-07T15:00:29.384Z,17.10
2022-10-07T15:02:58.160Z,17.10
2022-10-07T15:05:26.441Z,17.20
2022-10-07T15:07:53.072Z,17.20
2022-10-07T15:10:23.061Z,17.20
2022-10-07T15:12:50.076Z,17.10
2022-10-07T15:15:16.877Z,17.00
2022-10-07T15:17:44.301Z,17.00
2022-10-07T15:20:14.069Z,16.90
2022-10-07T15:22:41.325Z,16.90
2022-10-07T15:25:09.355Z,16.90
2022-10-07T15:27:37.668Z,16.80
2022-10-07T15:30:07.146Z,16.70
2022-10-07T15:32:34.021Z,16.70
2022-10-07T15:35:00.697Z,16.70
2022-10-07T15:37:27.511Z,16.70
2022-10-07T15:39:54.700Z,16.70
2022-10-07T15:42:24.120Z,16.50
2022-10-07T15:44:51.346Z,16.60
2022-10-07T15:47:18.612Z,16.60
2022-10-07T15:49:45.357Z,16.50
2022-10-07T15:52:12.100Z,16.50
2022-10-07T15:54:39.533Z,16.40
2022-10-07T15:57:08.184Z,16.30
2022-10-07T15:59:35.638Z,16.20
2022-10-07T16:02:03.705Z,16.20
2022-10-07T16:04:30.242Z,16.10
2022-10-07T16:06:57.055Z,16.10
2022-10-07T16:09:24.309Z,16.10
2022-10-07T16:11:51.420Z,16.10
2022-10-07T16:14:18.178Z,16.10
2022-10-07T16:16:45.403Z,15.90
2022-10-07T16:19:12.271Z,16.00
2022-10-07T16:21:41.262Z,15.90
2022-10-07T16:24:15.610Z,15.80
2022-10-07T16:26:43.799Z,15.80
2022-10-07T16:29:34.356Z,17.60
2022-10-07T16:32:01.238Z,15.80
2022-10-07T16:34:28.767Z,15.70
2022-10-07T16:36:56.273Z,15.60
2022-10-07T16:39:23.374Z,15.50
2022-10-07T16:41:52.156Z,15.40
2022-10-07T16:44:19.977Z,15.30
2022-10-07T16:46:47.342Z,15.20
2022-10-07T16:49:16.851Z,15.00
2022-10-07T16:51:44.512Z,14.90
2022-10-07T16:54:15.773Z,14.90
2022-10-07T16:56:47.981Z,14.70
2022-10-07T16:59:22.526Z,14.60
2022-10-07T17:01:51.489Z,14.50
2022-10-07T17:04:18.301Z,14.30
2022-10-07T17:09:32.939Z,14.10
2022-10-07T17:11:59.541Z,14.00
2022-10-07T17:14:26.478Z,14.00
2022-10-07T17:16:56.782Z,14.00
2022-10-07T17:19:25.669Z,14.10
2022-10-07T17:21:53.715Z,14.80
2022-10-07T17:24:21.993Z,14.10
2022-10-07T17:26:49.611Z,14.00
2022-10-07T17:29:18.357Z,14.00
2022-10-07T17:31:48.137Z,13.80
2022-10-07T17:34:19.790Z,13.80
2022-10-07T17:36:47.817Z,13.70
2022-10-07T17:39:14.941Z,13.70
2022-10-07T17:41:41.541Z,13.60
2022-10-07T17:44:11.420Z,13.20
2022-10-07T17:46:39.469Z,13.40
2022-10-07T17:49:08.210Z,13.40
2022-10-07T17:51:36.414Z,13.40
2022-10-07T17:54:04.957Z,13.30
2022-10-07T17:56:32.212Z,13.30
2022-10-07T17:58:58.929Z,13.30
2022-10-07T18:01:27.799Z,13.30
2022-10-07T18:03:56.992Z,13.40
2022-10-07T18:06:28.039Z,13.30
2022-10-07T18:08:55.037Z,13.30
2022-10-07T18:11:22.159Z,13.30
2022-10-07T18:14:07.303Z,13.20
2022-10-07T18:16:35.291Z,13.10
2022-10-07T18:19:02.020Z,13.10
2022-10-07T18:21:30.912Z,13.10
2022-10-07T18:23:58.009Z,13.10
2022-10-07T18:26:24.733Z,13.10
2022-10-07T18:28:51.458Z,13.10
2022-10-07T18:31:19.093Z,12.90
2022-10-07T18:33:46.250Z,12.90
2022-10-07T18:36:16.289Z,12.90
2022-10-07T18:38:44.133Z,12.90
2022-10-07T18:41:16.730Z,12.80
2022-10-07T18:43:45.279Z,12.80
2022-10-07T18:46:14.853Z,12.80
2022-10-07T18:48:43.294Z,12.80
2022-10-07T18:51:10.804Z,12.70
2022-10-07T18:53:39.530Z,12.60
2022-10-07T18:56:08.569Z,12.70
2022-10-07T18:58:42.692Z,12.80
2022-10-07T19:01:12.408Z,12.70
2022-10-07T19:03:39.803Z,14.20
2022-10-07T19:06:15.654Z,12.60
2022-10-07T19:08:43.003Z,12.50
2022-10-07T19:11:15.659Z,12.40
2022-10-07T19:13:50.832Z,12.40
2022-10-07T19:16:37.461Z,12.40
2022-10-07T19:19:07.513Z,12.40
2022-10-07T19:21:35.441Z,11.70
2022-10-07T19:24:03.179Z,12.20
2022-10-07T19:26:35.090Z,12.20
2022-10-07T19:29:03.271Z,12.20
2022-10-07T19:31:35.410Z,12.20
2022-10-07T19:34:05.732Z,12.10
2022-10-07T19:36:35.287Z,12.10
2022-10-07T19:39:03.550Z,12.10
2022-10-07T19:41:32.285Z,12.10
2022-10-07T19:43:59.603Z,12.10
2022-10-07T19:46:28.559Z,12.00
2022-10-07T19:48:58.064Z,12.00
2022-10-07T19:51:26.646Z,12.00
2022-10-07T19:53:53.545Z,12.00
2022-10-07T19:56:26.209Z,12.00
2022-10-07T19:58:58.676Z,12.00
2022-10-07T20:01:27.861Z,12.10
2022-10-07T20:04:09.994Z,12.10
2022-10-07T20:06:37.480Z,12.20
2022-10-07T20:09:06.577Z,12.20
2022-10-07T20:11:33.734Z,12.20
2022-10-07T20:14:01.519Z,12.30
2022-10-07T20:16:28.315Z,12.20
2022-10-07T20:19:01.513Z,12.20
2022-10-07T20:21:28.572Z,12.00
2022-10-07T20:26:38.489Z,11.90
2022-10-07T20:29:07.853Z,11.90
2022-10-07T20:31:38.417Z,11.90
2022-10-07T20:34:07.011Z,11.90
2022-10-07T20:36:36.642Z,12.00
2022-10-07T20:39:48.397Z,12.10
2022-10-07T20:42:21.492Z,12.10
2022-10-07T20:44:49.543Z,12.40
2022-10-07T20:47:16.558Z,12.20
2022-10-07T20:49:43.291Z,12.20
2022-10-07T20:52:13.902Z,12.20
2022-10-07T20:54:40.486Z,12.20
2022-10-07T20:57:07.120Z,12.20
2022-10-07T20:59:33.760Z,12.10
2022-10-07T21:02:03.858Z,12.10
2022-10-07T21:04:33.268Z,12.10
2022-10-07T21:07:00.011Z,14.30
2022-10-07T21:09:26.683Z,12.10
2022-10-07T21:11:54.227Z,11.80
2022-10-07T21:14:21.430Z,11.40
2022-10-07T21:16:48.862Z,12.00
2022-10-07T21:19:17.088Z,12.00
2022-10-07T21:21:43.846Z,11.90
2022-10-07T21:24:11.082Z,11.90
2022-10-07T21:26:38.060Z,11.90
2022-10-07T21:29:08.086Z,11.90
2022-10-07T21:31:35.672Z,12.00
2022-10-07T21:34:07.504Z,11.90
2022-10-07T21:36:40.931Z,11.90
2022-10-07T21:39:07.902Z,11.90
2022-10-07T21:41:35.846Z,11.90
2022-10-07T21:44:04.960Z,12.00
2022-10-07T21:46:36.525Z,11.90
2022-10-07T21:49:04.288Z,11.90
2022-10-07T21:51:32.199Z,11.90
2022-10-07T21:53:58.782Z,11.90
2022-10-07T21:56:27.961Z,11.90
2022-10-07T21:58:54.660Z,11.90
2022-10-07T22:01:23.006Z,11.80
2022-10-07T22:03:57.334Z,11.80
2022-10-07T22:06:45.193Z,11.70
2022-10-07T22:09:12.911Z,11.70
2022-10-07T22:11:40.217Z,12.10
2022-10-07T22:14:12.212Z,11.70
2022-10-07T22:16:39.136Z,11.70
2022-10-07T22:19:06.300Z,11.70
2022-10-07T22:21:35.654Z,11.70
2022-10-07T22:24:05.040Z,11.70
2022-10-07T22:26:35.267Z,11.70
2022-10-07T22:29:01.838Z,11.70
2022-10-07T22:31:30.115Z,11.70
2022-10-07T22:33:59.558Z,11.70
2022-10-07T22:36:28.158Z,11.70
2022-10-07T22:39:01.469Z,11.70
2022-10-07T22:41:29.096Z,11.70
2022-10-07T22:43:55.710Z,11.70
2022-10-07T22:46:28.023Z,11.70
2022-10-07T22:48:56.563Z,11.60
2022-10-07T22:51:24.395Z,11.50
2022-10-07T22:53:53.580Z,11.60
2022-10-07T22:56:21.250Z,11.60
2022-10-07T22:58:53.813Z,11.60
2022-10-07T23:01:21.572Z,11.70
2022-10-07T23:03:48.583Z,11.70
2022-10-07T23:06:17.728Z,11.60
2022-10-07T23:08:45.129Z,11.60
2022-10-07T23:11:16.342Z,11.70
2022-10-07T23:13:43.100Z,12.30
2022-10-07T23:16:15.455Z,11.70
2022-10-07T23:18:44.750Z,12.00
2022-10-07T23:21:16.534Z,11.70
2022-10-07T23:23:46.858Z,11.70
2022-10-07T23:26:22.992Z,11.70
2022-10-07T23:28:51.626Z,11.70
2022-10-07T23:31:20.635Z,11.60
2022-10-07T23:33:49.694Z,11.60
2022-10-07T23:36:17.482Z,11.50
2022-10-07T23:38:47.215Z,11.60
2022-10-07T23:41:21.959Z,11.60
2022-10-07T23:43:50.548Z,11.60
2022-10-07T23:46:18.519Z,11.60
2022-10-07T23:48:46.955Z,11.60
2022-10-07T23:51:15.675Z,11.60
2022-10-07T23:53:42.364Z,11.60
2022-10-07T23:56:09.285Z,11.60
2022-10-07T23:58:36.394Z,11.60
